Time;durP1;ratioP1;P1;durP2;ratioP2;P2;SDS_P1;SDS_P2;PMS_P1;PMS_P2;Temp;Humidity;BMP_temperature;BMP_pressure;BME280_temperature;BME280_humidity;BME280_pressure;Samples;Min_cycle;Max_cycle;Signal;HPM_P1;HPM_P2
2022/10/18 00:00:58;;;;;;;321.13;56.08;;;;;;;;;;5035355;28;20262;-70
2022/10/18 00:03:24;;;;;;;295.15;53.13;;;;;;;;;;5040166;28;20720;-70
2022/10/18 00:05:49;;;;;;;174.05;45.05;;;;;;;;;;5032361;28;20192;-70
2022/10/18 00:08:16;;;;;;;272.65;52.58;;;;;;;;;;5044882;28;20205;-70
2022/10/18 00:10:41;;;;;;;181.30;45.08;;;;;;;;;;5028624;28;20632;-70
2022/10/18 00:13:07;;;;;;;178.63;46.05;;;;;;;;;;5028964;28;20193;-71
2022/10/18 00:15:32;;;;;;;196.35;45.70;;;;;;;;;;5028499;28;20220;-71
2022/10/18 00:17:57;;;;;;;101.05;40.70;;;;;;;;;;5032046;28;20712;-71
2022/10/18 00:20:23;;;;;;;180.82;46.17;;;;;;;;;;5033998;28;20217;-70
2022/10/18 00:22:48;;;;;;;118.45;43.60;;;;;;;;;;5029758;28;20252;-70
2022/10/18 00:25:14;;;;;;;193.25;47.85;;;;;;;;;;5026498;28;20190;-71
2022/10/18 00:27:39;;;;;;;218.52;48.15;;;;;;;;;;5036957;28;20189;-71
2022/10/18 00:30:05;;;;;;;210.02;49.13;;;;;;;;;;5036462;28;20214;-70
2022/10/18 00:32:34;;;;;;;161.60;42.28;;;;;;;;;;5043361;28;20268;-71
2022/10/18 00:34:59;;;;;;;315.00;53.53;;;;;;;;;;5038623;28;20194;-71
2022/10/18 00:37:25;;;;;;;331.98;53.90;;;;;;;;;;5030077;28;20178;-71
2022/10/18 00:39:50;;;;;;;146.23;45.50;;;;;;;;;;5034763;28;20189;-70
2022/10/18 00:42:17;;;;;;;152.77;45.30;;;;;;;;;;5043865;28;20192;-70
2022/10/18 00:44:43;;;;;;;141.57;45.22;;;;;;;;;;5030423;28;20190;-70
2022/10/18 00:47:11;;;;;;;156.95;47.67;;;;;;;;;;5029167;28;20190;-70
2022/10/18 00:49:43;;;;;;;159.27;45.50;;;;;;;;;;5034828;28;20200;-70
2022/10/18 00:52:20;;;;;;;143.93;45.08;;;;;;;;;;5041039;28;20248;-70
2022/10/18 00:54:47;;;;;;;212.23;50.20;;;;;;;;;;5044974;28;20185;-70
2022/10/18 00:57:13;;;;;;;155.10;45.25;;;;;;;;;;5028550;28;20186;-70
2022/10/18 00:59:41;;;;;;;308.33;55.42;;;;;;;;;;5036229;28;20200;-70
2022/10/18 01:02:07;;;;;;;500.40;63.67;;;;;;;;;;5033942;28;20197;-70
2022/10/18 01:04:33;;;;;;;235.45;49.80;;;;;;;;;;5034139;28;20182;-70
2022/10/18 01:07:22;;;;;;;173.07;46.30;;;;;;;;;;5028010;28;20174;-70
2022/10/18 01:10:25;;;;;;;623.70;69.85;;;;;;;;;;5028670;28;20297;-70
2022/10/18 01:13:19;;;;;;;209.60;44.70;;;;;;;;;;5045327;28;20663;-70
2022/10/18 01:16:03;;;;;;;464.25;59.10;;;;;;;;;;5045489;28;20239;-70
2022/10/18 01:18:47;;;;;;;448.02;58.45;;;;;;;;;;5041529;28;20205;-70
2022/10/18 01:21:24;;;;;;;488.65;59.88;;;;;;;;;;5036115;28;20558;-70
2022/10/18 01:23:52;;;;;;;256.13;51.40;;;;;;;;;;5038594;28;20242;-70
2022/10/18 01:26:32;;;;;;;588.13;64.28;;;;;;;;;;5027663;28;20669;-70
2022/10/18 01:29:13;;;;;;;450.90;53.65;;;;;;;;;;5041170;28;20185;-70
2022/10/18 01:31:46;;;;;;;382.08;54.22;;;;;;;;;;5028606;28;20230;-70
2022/10/18 01:34:15;;;;;;;453.80;55.38;;;;;;;;;;5040418;28;20194;-70
2022/10/18 01:36:48;;;;;;;303.10;48.75;;;;;;;;;;5030866;28;20190;-70
2022/10/18 01:39:28;;;;;;;394.83;52.60;;;;;;;;;;5043515;28;20186;-70
2022/10/18 01:41:56;;;;;;;544.78;61.83;;;;;;;;;;5035780;28;20186;-70
2022/10/18 01:44:24;;;;;;;387.77;52.75;;;;;;;;;;5044939;28;20247;-70
2022/10/18 01:46:53;;;;;;;102.35;39.80;;;;;;;;;;5034972;28;20189;-70
2022/10/18 01:49:18;;;;;;;595.40;64.68;;;;;;;;;;5032082;28;20630;-70
2022/10/18 01:51:44;;;;;;;559.85;60.83;;;;;;;;;;5040927;28;20272;-70
2022/10/18 01:54:14;;;;;;;272.77;47.20;;;;;;;;;;5034345;28;20190;-70
2022/10/18 01:57:04;;;;;;;590.85;66.47;;;;;;;;;;5039154;28;20213;-70
2022/10/18 01:59:50;;;;;;;369.90;52.22;;;;;;;;;;5029973;28;20182;-71
2022/10/18 02:02:27;;;;;;;142.65;40.30;;;;;;;;;;5041317;28;20265;-71
2022/10/18 02:05:20;;;;;;;508.42;60.67;;;;;;;;;;5033170;28;20264;-71
2022/10/18 02:08:11;;;;;;;358.02;51.88;;;;;;;;;;5045102;28;20316;-71
2022/10/18 02:10:43;;;;;;;489.13;55.97;;;;;;;;;;5042940;28;20205;-71
2022/10/18 02:13:15;;;;;;;464.10;52.03;;;;;;;;;;5043225;28;20177;-71
2022/10/18 02:15:46;;;;;;;544.50;60.63;;;;;;;;;;5045354;28;20189;-71
2022/10/18 02:18:21;;;;;;;442.15;51.72;;;;;;;;;;5029561;28;20178;-71
2022/10/18 02:20:48;;;;;;;550.72;61.03;;;;;;;;;;5043305;28;20804;-71
2022/10/18 02:23:17;;;;;;;432.77;50.72;;;;;;;;;;5047727;28;20579;-71
2022/10/18 02:25:42;;;;;;;385.52;49.90;;;;;;;;;;5043825;28;20198;-71
2022/10/18 02:28:08;;;;;;;529.55;61.15;;;;;;;;;;5032607;28;20185;-71
2022/10/18 02:30:51;;;;;;;376.10;52.90;;;;;;;;;;5036451;28;20682;-71
2022/10/18 02:33:26;;;;;;;383.85;51.70;;;;;;;;;;5033042;28;20232;-71
2022/10/18 02:35:57;;;;;;;649.25;65.50;;;;;;;;;;5046093;28;20244;-71
2022/10/18 02:38:25;;;;;;;87.53;37.83;;;;;;;;;;5035165;28;20608;-71
2022/10/18 02:40:51;;;;;;;235.23;45.97;;;;;;;;;;5032817;28;20178;-71
2022/10/18 02:43:16;;;;;;;121.65;38.85;;;;;;;;;;5031114;28;20193;-71
2022/10/18 02:45:42;;;;;;;133.02;39.53;;;;;;;;;;5029000;28;20570;-71
2022/10/18 02:48:08;;;;;;;312.33;48.63;;;;;;;;;;5047453;28;20243;-71
2022/10/18 02:50:34;;;;;;;158.35;39.78;;;;;;;;;;5034211;28;20229;-71
2022/10/18 02:52:59;;;;;;;312.95;46.45;;;;;;;;;;5038174;28;20190;-71
2022/10/18 02:55:24;;;;;;;646.63;67.40;;;;;;;;;;5040200;28;20524;-71
2022/10/18 02:57:50;;;;;;;167.57;41.30;;;;;;;;;;5030633;28;20182;-71
2022/10/18 03:00:15;;;;;;;373.35;51.15;;;;;;;;;;5039792;28;20235;-71
2022/10/18 03:02:40;;;;;;;167.93;43.05;;;;;;;;;;5045015;28;20240;-71
2022/10/18 03:05:06;;;;;;;350.65;46.03;;;;;;;;;;5030608;28;20273;-71
2022/10/18 03:07:31;;;;;;;193.73;41.08;;;;;;;;;;5029809;28;20268;-71
2022/10/18 03:09:57;;;;;;;598.72;60.38;;;;;;;;;;5033581;28;20861;-71
2022/10/18 03:12:22;;;;;;;283.30;45.38;;;;;;;;;;5042972;28;20606;-71
2022/10/18 03:14:47;;;;;;;318.52;44.70;;;;;;;;;;5049363;28;20703;-71
2022/10/18 03:17:12;;;;;;;133.70;36.97;;;;;;;;;;5046352;28;20239;-71
2022/10/18 03:19:38;;;;;;;287.52;44.35;;;;;;;;;;5029705;28;20232;-71
2022/10/18 03:22:04;;;;;;;166.25;37.78;;;;;;;;;;5048479;28;20673;-71
2022/10/18 03:24:29;;;;;;;142.80;38.25;;;;;;;;;;5049687;28;20292;-71
2022/10/18 03:26:55;;;;;;;133.27;35.47;;;;;;;;;;5037889;28;20238;-71
2022/10/18 03:29:20;;;;;;;264.83;42.92;;;;;;;;;;5039945;28;20280;-71
2022/10/18 03:31:45;;;;;;;587.75;58.78;;;;;;;;;;5043524;28;20233;-71
2022/10/18 03:34:11;;;;;;;227.52;42.20;;;;;;;;;;5030588;28;20197;-71
2022/10/18 03:36:37;;;;;;;413.13;47.35;;;;;;;;;;5030352;28;20182;-71
2022/10/18 03:39:03;;;;;;;270.55;43.25;;;;;;;;;;5036097;28;20182;-71
2022/10/18 03:41:28;;;;;;;199.07;36.50;;;;;;;;;;5030641;28;20198;-71
2022/10/18 03:43:53;;;;;;;203.73;40.78;;;;;;;;;;5041160;28;20197;-71
2022/10/18 03:46:19;;;;;;;244.07;41.45;;;;;;;;;;5036939;28;20185;-71
2022/10/18 03:48:44;;;;;;;195.57;39.72;;;;;;;;;;5042295;28;20549;-71
2022/10/18 03:51:09;;;;;;;479.02;51.65;;;;;;;;;;5043436;28;20228;-71
2022/10/18 03:53:35;;;;;;;148.82;36.78;;;;;;;;;;5045218;28;20273;-71
2022/10/18 03:56:00;;;;;;;168.45;37.80;;;;;;;;;;5030375;28;20190;-70
2022/10/18 03:58:26;;;;;;;425.15;52.03;;;;;;;;;;5032345;28;20181;-70
2022/10/18 04:00:52;;;;;;;464.77;56.35;;;;;;;;;;5034459;28;20193;-70
2022/10/18 04:03:19;;;;;;;256.42;44.97;;;;;;;;;;5040095;28;20185;-70
2022/10/18 04:05:45;;;;;;;319.05;46.28;;;;;;;;;;5034493;28;20190;-70
2022/10/18 04:08:11;;;;;;;201.82;41.63;;;;;;;;;;5028853;28;20194;-71
2022/10/18 04:10:38;;;;;;;230.43;42.90;;;;;;;;;;5036321;28;20664;-71
2022/10/18 04:13:04;;;;;;;415.50;52.15;;;;;;;;;;5033247;28;20189;-71
2022/10/18 04:15:29;;;;;;;183.13;38.50;;;;;;;;;;5033981;28;20182;-71
2022/10/18 04:17:55;;;;;;;264.63;44.60;;;;;;;;;;5032377;28;20255;-71
2022/10/18 04:20:21;;;;;;;266.00;44.50;;;;;;;;;;5038106;28;20236;-71
2022/10/18 04:22:47;;;;;;;304.83;47.75;;;;;;;;;;5028666;28;20186;-71
2022/10/18 04:25:12;;;;;;;250.68;43.28;;;;;;;;;;5029214;28;20178;-71
2022/10/18 04:27:38;;;;;;;272.27;46.22;;;;;;;;;;5028264;28;20185;-71
2022/10/18 04:30:04;;;;;;;319.65;48.47;;;;;;;;;;5028432;28;21671;-71
2022/10/18 04:32:29;;;;;;;213.55;41.35;;;;;;;;;;5032042;28;20796;-71
2022/10/18 04:34:55;;;;;;;260.30;46.70;;;;;;;;;;5033133;28;20186;-71
2022/10/18 04:37:20;;;;;;;344.77;48.75;;;;;;;;;;5032212;28;20181;-71
2022/10/18 04:39:47;;;;;;;294.23;43.72;;;;;;;;;;5031770;28;20309;-71
2022/10/18 04:42:13;;;;;;;317.63;46.25;;;;;;;;;;5040689;28;20170;-71
2022/10/18 04:44:38;;;;;;;293.00;43.85;;;;;;;;;;5036089;28;20280;-71
2022/10/18 04:47:03;;;;;;;445.50;52.00;;;;;;;;;;5039528;28;20182;-72
2022/10/18 04:49:29;;;;;;;418.98;50.63;;;;;;;;;;5036336;28;20292;-71
2022/10/18 04:51:54;;;;;;;363.60;46.42;;;;;;;;;;5026497;28;20273;-71
2022/10/18 04:54:19;;;;;;;163.73;38.90;;;;;;;;;;5044252;28;20541;-71
2022/10/18 04:56:45;;;;;;;405.73;50.97;;;;;;;;;;5040593;28;20697;-71
2022/10/18 04:59:10;;;;;;;314.42;46.20;;;;;;;;;;5044190;28;20189;-71
2022/10/18 05:01:35;;;;;;;111.75;35.00;;;;;;;;;;5043668;28;20189;-71
2022/10/18 05:04:01;;;;;;;283.13;46.25;;;;;;;;;;5035916;28;20182;-71
2022/10/18 05:06:26;;;;;;;369.73;48.28;;;;;;;;;;5028313;28;20229;-71
2022/10/18 05:08:51;;;;;;;148.30;34.72;;;;;;;;;;5034613;28;20316;-71
2022/10/18 05:11:16;;;;;;;565.72;59.10;;;;;;;;;;5034006;28;20693;-71
2022/10/18 05:13:42;;;;;;;258.80;41.65;;;;;;;;;;5036979;28;20193;-71
2022/10/18 05:16:07;;;;;;;282.38;41.50;;;;;;;;;;5036069;28;20328;-71
2022/10/18 05:18:33;;;;;;;152.55;36.05;;;;;;;;;;5051010;28;20181;-71
2022/10/18 05:20:58;;;;;;;197.85;39.38;;;;;;;;;;5048910;28;20182;-71
2022/10/18 05:23:24;;;;;;;88.43;32.78;;;;;;;;;;5036680;28;20335;-71
2022/10/18 05:25:50;;;;;;;155.55;36.83;;;;;;;;;;5042644;28;20225;-71
2022/10/18 05:28:15;;;;;;;192.00;39.20;;;;;;;;;;5044977;28;20185;-71
2022/10/18 05:30:41;;;;;;;198.93;39.25;;;;;;;;;;5042771;28;20525;-71
2022/10/18 05:33:07;;;;;;;63.83;29.98;;;;;;;;;;5031720;28;20765;-71
2022/10/18 05:35:32;;;;;;;303.23;43.25;;;;;;;;;;5031830;28;20202;-72
2022/10/18 05:38:00;;;;;;;337.90;45.13;;;;;;;;;;5036033;28;20635;-71
2022/10/18 05:40:25;;;;;;;251.55;41.95;;;;;;;;;;5034101;28;20189;-71
2022/10/18 05:42:51;;;;;;;112.90;33.97;;;;;;;;;;5035537;28;20586;-71
2022/10/18 05:45:17;;;;;;;172.70;35.33;;;;;;;;;;5037926;28;20174;-71
2022/10/18 05:47:42;;;;;;;351.60;44.58;;;;;;;;;;5034188;28;20178;-71
2022/10/18 05:50:08;;;;;;;186.48;37.28;;;;;;;;;;5032850;28;20216;-71
2022/10/18 05:52:33;;;;;;;140.15;34.67;;;;;;;;;;5033604;28;20278;-71
2022/10/18 05:54:59;;;;;;;178.40;36.47;;;;;;;;;;5034385;28;20259;-71
2022/10/18 05:57:24;;;;;;;276.40;41.90;;;;;;;;;;5031070;28;20182;-71
2022/10/18 05:59:49;;;;;;;306.08;42.63;;;;;;;;;;5031267;28;20672;-71
2022/10/18 06:02:15;;;;;;;214.23;37.92;;;;;;;;;;5042029;28;20182;-71
2022/10/18 06:04:40;;;;;;;208.32;39.42;;;;;;;;;;5031010;28;20215;-71
2022/10/18 06:07:10;;;;;;;177.30;37.80;;;;;;;;;;5030223;28;20182;-71
2022/10/18 06:09:35;;;;;;;189.88;37.00;;;;;;;;;;5034355;28;20235;-71
2022/10/18 06:12:01;;;;;;;250.82;42.03;;;;;;;;;;5030302;28;20256;-72
2022/10/18 06:14:26;;;;;;;180.88;37.33;;;;;;;;;;5030586;28;20197;-71
2022/10/18 06:16:51;;;;;;;258.33;39.63;;;;;;;;;;5030635;28;20178;-71
2022/10/18 06:19:17;;;;;;;205.38;36.67;;;;;;;;;;5029864;28;20170;-71
2022/10/18 06:21:42;;;;;;;169.38;36.88;;;;;;;;;;5034356;28;20189;-71
2022/10/18 06:24:08;;;;;;;205.75;38.63;;;;;;;;;;5032485;28;20197;-72
2022/10/18 06:26:33;;;;;;;225.02;41.33;;;;;;;;;;5031507;28;20673;-71
2022/10/18 06:28:59;;;;;;;157.80;35.63;;;;;;;;;;5031198;28;20182;-72
2022/10/18 06:31:24;;;;;;;119.85;32.20;;;;;;;;;;5032143;28;20864;-71
2022/10/18 06:33:50;;;;;;;118.43;31.08;;;;;;;;;;5029609;28;20174;-71
2022/10/18 06:36:18;;;;;;;143.57;33.92;;;;;;;;;;5030931;28;20194;-71
2022/10/18 06:38:43;;;;;;;148.55;34.05;;;;;;;;;;5033931;28;20642;-71
2022/10/18 06:41:09;;;;;;;136.55;32.70;;;;;;;;;;5032110;28;20186;-71
2022/10/18 06:43:34;;;;;;;161.10;33.88;;;;;;;;;;5032076;28;20189;-71
2022/10/18 06:46:02;;;;;;;180.95;36.03;;;;;;;;;;5031780;28;20261;-71
2022/10/18 06:48:27;;;;;;;116.93;30.70;;;;;;;;;;5031384;28;20554;-71
2022/10/18 06:50:57;;;;;;;98.05;30.10;;;;;;;;;;5030673;28;20209;-71
2022/10/18 06:53:23;;;;;;;94.10;29.83;;;;;;;;;;5042945;28;20182;-71
2022/10/18 06:55:49;;;;;;;116.65;29.52;;;;;;;;;;5035986;28;20553;-71
2022/10/18 06:58:14;;;;;;;84.85;27.17;;;;;;;;;;5030805;28;20182;-70
2022/10/18 07:00:40;;;;;;;113.00;28.33;;;;;;;;;;5031675;28;20182;-72
2022/10/18 07:03:05;;;;;;;84.28;27.92;;;;;;;;;;5034297;28;20599;-72
2022/10/18 07:05:31;;;;;;;62.33;26.20;;;;;;;;;;5031796;28;20210;-71
2022/10/18 07:07:57;;;;;;;70.13;24.98;;;;;;;;;;5032445;28;20209;-71
2022/10/18 07:10:23;;;;;;;88.32;27.05;;;;;;;;;;5029688;28;20563;-71
2022/10/18 07:12:49;;;;;;;97.55;27.83;;;;;;;;;;5033425;28;20635;-71
2022/10/18 07:15:14;;;;;;;69.38;24.80;;;;;;;;;;5031264;28;20512;-71
2022/10/18 07:17:40;;;;;;;76.40;25.27;;;;;;;;;;5031786;28;20174;-70
2022/10/18 07:20:06;;;;;;;69.18;25.30;;;;;;;;;;5032628;28;20205;-70
2022/10/18 07:22:32;;;;;;;60.28;24.27;;;;;;;;;;5034998;28;20261;-70
2022/10/18 07:24:58;;;;;;;76.03;25.08;;;;;;;;;;5029204;28;20552;-70
2022/10/18 07:27:23;;;;;;;60.80;22.80;;;;;;;;;;5029142;28;20182;-70
2022/10/18 07:29:48;;;;;;;68.15;24.95;;;;;;;;;;5034917;28;20567;-71
2022/10/18 07:32:14;;;;;;;82.68;26.67;;;;;;;;;;5031019;28;20284;-71
2022/10/18 07:34:39;;;;;;;62.10;24.25;;;;;;;;;;5040532;28;20709;-71
2022/10/18 07:37:04;;;;;;;60.90;24.25;;;;;;;;;;5036661;28;20311;-71
2022/10/18 07:39:30;;;;;;;61.72;23.80;;;;;;;;;;5028777;28;20264;-71
2022/10/18 07:41:56;;;;;;;56.60;23.35;;;;;;;;;;5031461;28;20182;-70
2022/10/18 07:44:21;;;;;;;62.00;23.85;;;;;;;;;;5035530;28;20201;-70
2022/10/18 07:46:47;;;;;;;57.60;22.30;;;;;;;;;;5036354;28;20220;-70
2022/10/18 07:49:12;;;;;;;56.78;24.80;;;;;;;;;;5035085;28;20185;-71
2022/10/18 07:51:37;;;;;;;52.50;23.70;;;;;;;;;;5036233;28;20185;-71
2022/10/18 07:54:03;;;;;;;54.00;23.75;;;;;;;;;;5039273;28;20200;-71
2022/10/18 07:56:28;;;;;;;48.03;22.90;;;;;;;;;;5035495;28;20300;-71
2022/10/18 07:58:55;;;;;;;57.38;24.08;;;;;;;;;;5037472;28;20178;-71
2022/10/18 08:01:22;;;;;;;53.08;25.15;;;;;;;;;;5038958;28;20609;-71
2022/10/18 08:03:47;;;;;;;59.50;25.10;;;;;;;;;;5036335;28;20205;-71
2022/10/18 08:06:16;;;;;;;50.40;22.83;;;;;;;;;;5032309;28;20216;-71
2022/10/18 08:08:42;;;;;;;48.05;23.10;;;;;;;;;;5035461;28;20193;-71
2022/10/18 08:11:19;;;;;;;52.00;23.73;;;;;;;;;;5036780;28;20217;-70
2022/10/18 08:13:45;;;;;;;46.92;20.70;;;;;;;;;;5034288;28;20279;-70
2022/10/18 08:16:13;;;;;;;46.97;21.27;;;;;;;;;;5041129;28;20272;-70
2022/10/18 08:18:39;;;;;;;48.45;20.08;;;;;;;;;;5028613;28;20265;-71
2022/10/18 08:21:09;;;;;;;44.38;21.98;;;;;;;;;;5034044;28;20189;-71
2022/10/18 08:23:35;;;;;;;44.03;21.83;;;;;;;;;;5036622;28;20189;-71
2022/10/18 08:26:05;;;;;;;49.63;21.30;;;;;;;;;;5039613;28;20487;-71
2022/10/18 08:28:31;;;;;;;45.05;20.30;;;;;;;;;;5034179;28;20177;-70
2022/10/18 08:31:04;;;;;;;33.05;18.45;;;;;;;;;;5041439;28;20209;-70
2022/10/18 08:33:30;;;;;;;39.42;19.35;;;;;;;;;;5035894;28;20313;-70
2022/10/18 08:35:57;;;;;;;36.42;18.95;;;;;;;;;;5018302;28;20233;-70
2022/10/18 08:38:23;;;;;;;35.25;20.23;;;;;;;;;;5041110;28;20496;-70
2022/10/18 08:40:49;;;;;;;34.65;17.98;;;;;;;;;;5037213;28;20186;-71
2022/10/18 08:43:36;;;;;;;38.90;19.52;;;;;;;;;;5036390;28;20185;-71
2022/10/18 08:46:02;;;;;;;39.30;19.73;;;;;;;;;;5032862;28;20221;-71
2022/10/18 08:48:46;;;;;;;36.63;20.40;;;;;;;;;;5040547;28;20681;-71
2022/10/18 08:51:32;;;;;;;37.05;19.80;;;;;;;;;;5038867;28;20209;-71
2022/10/18 08:54:09;;;;;;;36.80;20.23;;;;;;;;;;5043845;28;20192;-71
2022/10/18 08:56:36;;;;;;;38.58;19.05;;;;;;;;;;5037448;28;20189;-71
2022/10/18 08:59:03;;;;;;;37.92;19.48;;;;;;;;;;5041774;28;20197;-71
2022/10/18 09:01:55;;;;;;;31.02;18.10;;;;;;;;;;5039200;28;20219;-71
2022/10/18 09:04:42;;;;;;;28.10;16.77;;;;;;;;;;5035864;28;20486;-71
2022/10/18 09:07:44;;;;;;;30.88;17.77;;;;;;;;;;5026657;28;20193;-71
2022/10/18 09:10:34;;;;;;;30.30;17.45;;;;;;;;;;5030428;28;20194;-71
2022/10/18 09:13:24;;;;;;;31.80;16.65;;;;;;;;;;5029855;28;20260;-71
2022/10/18 09:16:02;;;;;;;31.33;16.65;;;;;;;;;;5027617;28;20519;-70
2022/10/18 09:18:35;;;;;;;29.10;15.75;;;;;;;;;;5031675;28;20563;-72
2022/10/18 09:21:16;;;;;;;29.88;15.88;;;;;;;;;;5038210;28;20194;-72
2022/10/18 09:23:45;;;;;;;29.48;15.57;;;;;;;;;;5042740;28;20181;-70
2022/10/18 09:26:19;;;;;;;26.40;16.63;;;;;;;;;;5032611;28;20650;-70
2022/10/18 09:29:09;;;;;;;33.10;15.30;;;;;;;;;;5037905;28;20282;-70
2022/10/18 09:31:46;;;;;;;27.00;15.05;;;;;;;;;;5036770;28;20676;-71
2022/10/18 09:34:36;;;;;;;28.40;14.65;;;;;;;;;;5035601;28;20205;-71
2022/10/18 09:37:01;;;;;;;27.65;14.25;;;;;;;;;;5043469;28;20672;-70
2022/10/18 09:39:34;;;;;;;22.08;13.38;;;;;;;;;;5039005;28;20209;-70
2022/10/18 09:42:10;;;;;;;23.77;12.48;;;;;;;;;;5032644;28;20186;-70
2022/10/18 09:44:40;;;;;;;22.33;13.38;;;;;;;;;;5043539;28;20196;-70
2022/10/18 09:47:26;;;;;;;22.80;11.85;;;;;;;;;;5038205;28;20201;-70
2022/10/18 09:49:56;;;;;;;18.77;10.57;;;;;;;;;;5031436;28;20661;-70
2022/10/18 09:52:40;;;;;;;28.35;10.95;;;;;;;;;;5038133;28;20185;-70
2022/10/18 09:55:16;;;;;;;21.77;13.18;;;;;;;;;;5034832;28;20632;-70
2022/10/18 09:57:46;;;;;;;24.08;13.18;;;;;;;;;;5030731;28;20181;-70
2022/10/18 10:00:24;;;;;;;27.58;12.55;;;;;;;;;;5032050;28;20178;-70
2022/10/18 10:02:49;;;;;;;24.15;12.32;;;;;;;;;;5032371;28;20192;-70
2022/10/18 10:05:15;;;;;;;23.75;12.40;;;;;;;;;;5030939;28;20181;-70
2022/10/18 10:07:43;;;;;;;24.45;10.70;;;;;;;;;;5033390;28;20182;-70
2022/10/18 10:10:30;;;;;;;21.88;10.15;;;;;;;;;;5032884;28;20217;-70
2022/10/18 10:13:12;;;;;;;28.63;11.48;;;;;;;;;;5035950;28;20193;-70
2022/10/18 10:15:37;;;;;;;17.95;8.07;;;;;;;;;;5035083;28;20193;-70
2022/10/18 10:18:16;;;;;;;15.98;9.15;;;;;;;;;;5045784;28;20174;-69
2022/10/18 10:20:54;;;;;;;18.08;9.43;;;;;;;;;;5040641;28;20182;-69
2022/10/18 10:23:25;;;;;;;13.25;7.75;;;;;;;;;;5033990;28;20181;-69
2022/10/18 10:25:53;;;;;;;15.23;6.30;;;;;;;;;;5038251;28;20595;-69
2022/10/18 10:28:31;;;;;;;13.48;5.40;;;;;;;;;;5030343;28;20181;-69
2022/10/18 10:31:15;;;;;;;15.00;5.53;;;;;;;;;;5035712;28;20201;-69
2022/10/18 10:33:45;;;;;;;13.57;6.00;;;;;;;;;;5033805;28;20181;-69
2022/10/18 10:36:19;;;;;;;10.15;5.25;;;;;;;;;;5034012;28;20174;-70
2022/10/18 10:38:50;;;;;;;11.82;4.45;;;;;;;;;;5030531;28;20217;-70
2022/10/18 10:41:21;;;;;;;13.70;4.75;;;;;;;;;;5032123;28;20666;-69
2022/10/18 10:43:47;;;;;;;11.77;4.47;;;;;;;;;;5034663;28;20186;-69
2022/10/18 10:46:15;;;;;;;9.90;3.30;;;;;;;;;;5031917;28;20181;-69
2022/10/18 10:48:54;;;;;;;10.25;3.03;;;;;;;;;;5040583;28;20239;-69
2022/10/18 10:51:37;;;;;;;14.50;3.40;;;;;;;;;;5031112;28;20193;-69
2022/10/18 10:54:12;;;;;;;7.47;2.97;;;;;;;;;;5034975;28;20198;-68
2022/10/18 10:56:56;;;;;;;8.63;2.35;;;;;;;;;;5031845;28;20647;-70
2022/10/18 10:59:25;;;;;;;8.20;1.92;;;;;;;;;;5042943;28;20499;-70
2022/10/18 11:02:13;;;;;;;10.60;2.38;;;;;;;;;;5038201;28;20188;-70
2022/10/18 11:04:39;;;;;;;5.93;1.77;;;;;;;;;;5039901;28;20186;-70
2022/10/18 11:07:08;;;;;;;7.80;2.22;;;;;;;;;;5038828;28;20193;-69
2022/10/18 11:09:45;;;;;;;8.90;1.60;;;;;;;;;;5044986;28;20211;-69
2022/10/18 11:12:21;;;;;;;7.53;1.38;;;;;;;;;;5036274;28;20192;-69
2022/10/18 11:14:56;;;;;;;7.43;1.58;;;;;;;;;;5033655;28;20243;-69
2022/10/18 11:17:33;;;;;;;6.30;0.88;;;;;;;;;;5029274;28;20178;-69
2022/10/18 11:20:16;;;;;;;9.27;1.80;;;;;;;;;;5033555;28;20184;-69
2022/10/18 11:23:04;;;;;;;3.40;0.82;;;;;;;;;;5029990;28;20186;-69
2022/10/18 11:26:01;;;;;;;4.72;0.90;;;;;;;;;;4333900;28;10000330;-69
2022/10/18 11:28:58;;;;;;;5.05;1.08;;;;;;;;;;5027147;28;20178;-68
2022/10/18 11:31:30;;;;;;;5.10;1.40;;;;;;;;;;5028855;28;20271;-68
2022/10/18 11:34:01;;;;;;;9.23;1.45;;;;;;;;;;5028170;28;20220;-70
2022/10/18 11:36:51;;;;;;;11.50;1.60;;;;;;;;;;5029652;28;20189;-68
2022/10/18 11:39:16;;;;;;;8.35;1.55;;;;;;;;;;5029778;28;20240;-69
2022/10/18 11:42:03;;;;;;;6.47;1.63;;;;;;;;;;5031386;28;20208;-70
2022/10/18 11:45:05;;;;;;;10.98;1.70;;;;;;;;;;5034536;28;20549;-68
2022/10/18 11:47:51;;;;;;;8.02;1.83;;;;;;;;;;5035416;28;20177;-68
2022/10/18 11:50:28;;;;;;;4.50;1.60;;;;;;;;;;5032687;28;20236;-68
2022/10/18 11:53:25;;;;;;;7.80;1.80;;;;;;;;;;5034884;28;20574;-69
2022/10/18 11:56:04;;;;;;;6.70;1.67;;;;;;;;;;5027958;28;20704;-68
2022/10/18 11:59:01;;;;;;;10.65;2.13;;;;;;;;;;5039878;28;20500;-68
2022/10/18 12:01:38;;;;;;;6.13;1.50;;;;;;;;;;5036735;28;20641;-68
2022/10/18 12:04:14;;;;;;;5.85;1.75;;;;;;;;;;5039069;28;20270;-69
2022/10/18 12:06:41;;;;;;;8.05;1.50;;;;;;;;;;5035144;28;20191;-68
2022/10/18 12:09:23;;;;;;;6.65;2.08;;;;;;;;;;5040740;28;20235;-69
2022/10/18 12:11:57;;;;;;;4.93;1.20;;;;;;;;;;5044133;28;20185;-68
2022/10/18 12:14:34;;;;;;;3.83;1.33;;;;;;;;;;5033900;28;20193;-68
2022/10/18 12:17:05;;;;;;;7.78;1.42;;;;;;;;;;5044319;28;20189;-68
2022/10/18 12:19:33;;;;;;;4.28;1.00;;;;;;;;;;5030695;28;20185;-69
2022/10/18 12:22:21;;;;;;;8.70;1.00;;;;;;;;;;5036854;28;21629;-69
2022/10/18 12:24:47;;;;;;;4.65;0.90;;;;;;;;;;5030122;28;20182;-68
2022/10/18 12:27:14;;;;;;;5.28;0.90;;;;;;;;;;5026797;28;20186;-69
2022/10/18 12:29:56;;;;;;;5.63;0.70;;;;;;;;;;5029164;28;20258;-68
2022/10/18 12:32:28;;;;;;;4.20;0.80;;;;;;;;;;5028839;28;20229;-68
2022/10/18 12:34:59;;;;;;;4.53;0.80;;;;;;;;;;5035406;28;20230;-70
2022/10/18 12:37:58;;;;;;;5.10;1.27;;;;;;;;;;5034125;28;20188;-69
2022/10/18 12:40:36;;;;;;;5.65;1.15;;;;;;;;;;5037285;28;20189;-69
2022/10/18 12:43:07;;;;;;;5.60;1.17;;;;;;;;;;5033344;28;20193;-70
2022/10/18 12:45:45;;;;;;;4.55;0.90;;;;;;;;;;5035514;28;20174;-69
2022/10/18 12:48:45;;;;;;;6.25;0.68;;;;;;;;;;5028830;28;20201;-71
2022/10/18 12:51:18;;;;;;;7.15;1.63;;;;;;;;;;5029512;28;20250;-69
2022/10/18 12:53:46;;;;;;;7.65;0.90;;;;;;;;;;5030250;28;20564;-70
2022/10/18 12:56:37;;;;;;;3.72;0.70;;;;;;;;;;5028579;28;20378;-69
2022/10/18 12:59:14;;;;;;;8.50;1.60;;;;;;;;;;5031253;28;20186;-69
2022/10/18 13:01:51;;;;;;;5.65;0.80;;;;;;;;;;5027609;28;20176;-69
2022/10/18 13:04:26;;;;;;;8.68;1.20;;;;;;;;;;5030254;28;20303;-70
2022/10/18 13:07:01;;;;;;;12.52;1.85;;;;;;;;;;5028037;28;20181;-69
2022/10/18 13:09:34;;;;;;;5.03;0.90;;;;;;;;;;5039456;28;20193;-68
2022/10/18 13:12:08;;;;;;;6.25;1.02;;;;;;;;;;5029799;28;20178;-69
2022/10/18 13:14:55;;;;;;;9.52;1.33;;;;;;;;;;5043117;28;20189;-70
2022/10/18 13:17:43;;;;;;;5.93;1.00;;;;;;;;;;5028444;28;20182;-70
2022/10/18 13:20:25;;;;;;;7.57;1.45;;;;;;;;;;5031051;28;20190;-70
2022/10/18 13:23:24;;;;;;;6.70;1.23;;;;;;;;;;5029525;28;20672;-70
2022/10/18 13:26:04;;;;;;;6.65;1.13;;;;;;;;;;5030280;28;20178;-69
2022/10/18 13:28:45;;;;;;;6.85;1.20;;;;;;;;;;5030831;28;20178;-70
2022/10/18 13:31:22;;;;;;;8.50;1.55;;;;;;;;;;5037734;28;20240;-70
2022/10/18 13:33:48;;;;;;;6.25;1.25;;;;;;;;;;5037965;28;20190;-69
2022/10/18 13:36:16;;;;;;;7.20;1.75;;;;;;;;;;5027094;28;20182;-69
2022/10/18 13:38:46;;;;;;;18.00;1.30;;;;;;;;;;5038859;28;20201;-69
2022/10/18 13:41:25;;;;;;;9.13;1.17;;;;;;;;;;5040489;28;20185;-70
2022/10/18 13:44:21;;;;;;;6.13;1.00;;;;;;;;;;5031858;28;20656;-69
2022/10/18 13:46:46;;;;;;;10.45;1.88;;;;;;;;;;5031689;28;20178;-70
2022/10/18 13:49:26;;;;;;;8.45;1.40;;;;;;;;;;5030101;28;20546;-71
2022/10/18 13:52:16;;;;;;;7.68;1.33;;;;;;;;;;5030474;28;20260;-70
2022/10/18 13:55:19;;;;;;;5.93;1.17;;;;;;;;;;5037760;28;20182;-70
2022/10/18 13:57:51;;;;;;;6.57;1.20;;;;;;;;;;5044624;28;20689;-70
2022/10/18 14:00:22;;;;;;;9.77;1.30;;;;;;;;;;5038898;28;20217;-70
2022/10/18 14:03:34;;;;;;;8.15;1.10;;;;;;;;;;5042305;28;20190;-70
2022/10/18 14:06:09;;;;;;;6.40;1.23;;;;;;;;;;5046764;28;20208;-70
2022/10/18 14:08:51;;;;;;;8.60;1.10;;;;;;;;;;5038169;28;20644;-71
2022/10/18 14:11:32;;;;;;;7.97;1.30;;;;;;;;;;5034666;28;20199;-70
2022/10/18 14:14:00;;;;;;;4.53;0.85;;;;;;;;;;5047666;28;20190;-68
2022/10/18 14:16:35;;;;;;;7.57;0.80;;;;;;;;;;5045272;28;20676;-70
2022/10/18 14:19:30;;;;;;;10.55;1.40;;;;;;;;;;4333259;28;10000693;-69
2022/10/18 14:22:06;;;;;;;10.75;1.23;;;;;;;;;;5026625;28;20214;-69
2022/10/18 14:24:31;;;;;;;8.60;0.95;;;;;;;;;;5031616;28;20212;-70
2022/10/18 14:27:15;;;;;;;8.35;1.38;;;;;;;;;;5031521;28;20711;-70
2022/10/18 14:29:41;;;;;;;5.72;1.00;;;;;;;;;;5035443;28;20177;-70
2022/10/18 14:32:09;;;;;;;7.70;1.23;;;;;;;;;;5036313;28;20564;-70
2022/10/18 14:34:35;;;;;;;9.68;1.30;;;;;;;;;;5037008;28;20189;-70
2022/10/18 14:37:00;;;;;;;6.50;1.13;;;;;;;;;;5038036;28;20197;-71
2022/10/18 14:39:31;;;;;;;7.28;0.98;;;;;;;;;;5035246;28;20182;-70
2022/10/18 14:41:57;;;;;;;9.25;1.10;;;;;;;;;;5042113;28;20567;-70
2022/10/18 14:44:26;;;;;;;6.78;1.08;;;;;;;;;;5033616;28;20189;-69